Aérodrome :
LOGIN :

S'inscrire | Disclaimer

   EN    FR    IT 

 










Légende :    VFR   VFR Marginal   IFR   IFR Intensif   IFR Très Intensif
Visi : 
Plafond : 
>= 8 km
>= 3000ft
5 à 8 km
1000 à 3000 ft
1500m à 5 km
500 à 1000 ft
800 à 1500m
200 à 500 ft
< 800m
< 200 ft
Symboles :   Orages  Brouillard  Fortes neiges  Fortes précipitations  Vent > 20 kt
SIGMETs :   Divers  Orages  Givrage  Turbulence  Onde Orograph.  Cendres Volcan.







- Altitude de l'aérodrome : 782 ft
- Code IATA : BGY


LIME - Orio al Serio International - Bergamo

DERNIER METAR :
  • 101350Z 31011KT 270V340 CAVOK 14/M06 Q1016 WS IN APCH RWY28 NOSIG

METARs EXPIRÉS :
  • 101320Z 30012KT 270V340 CAVOK 14/M06 Q1015 WS IN APCH RWY28 NOSIG
  • 101250Z 30014KT CAVOK 14/M06 Q1016 WS RWY28 NOSIG
  • 101220Z 30015G26KT CAVOK 14/M06 Q1015 NOSIG
  • 101150Z 30014KT CAVOK 14/M06 Q1015 NOSIG
  • 101120Z 30015KT CAVOK 14/M06 Q1015 NOSIG
  • 101050Z 30014KT CAVOK 13/M05 Q1015 NOSIG

TAF TAF LIME
Valide du 10 à 12h jusqu'au 11 à 12h UTC


101100Z 1012/1112 35015KT CAVOK
BECMG 1016/1018 VRB05KT
Pas de NOTAMs connus pour ce terrain.
3 SIGMETs publiés pour la FIR Milano (LIMM) :
 
Turbulence forte
LIMM SIGMET 12 VALID 101240/101540 LIIP
LIMM MILANO FIR SEV TURB FCST N OF LINE N4443 E00631 - N4639 E01321 ABV FL020 STNR NC=
Turbulence forte
LIMM SIGMET 11 VALID 101240/101540 LIIP
LIMM MILANO FIR SEV TURB FCST ENTIRE FIR FL220/380 STNR NC=
Turbulence forte
LIMM SIGMET 10 VALID 101215/101515 LIIP
LIMM MILANO FIR SEV TURB FCST WI N4459 E00932 - N4331 E01316 - N4345 E01055 - N4445 E00903 - N4459 E00932 ABV FL020 STNR NC=



MET'MAP, la Météo Aéronautique d'un coup d'oeil ! - Copyright ORBIFLY Décembre 2007 - Disclaimer

ORBIFLY MET'MAP TEAM :

Programmation & Développement : Alexandra Zaïnal
Conception & Développement : Baudouin d'Aumeries
Co-Programmation & Développement : Marc-Olivier Méhu
Soutien technique & logistique : Manuel Goepfert

Contact : metmap@orbifly.com




SOURCES & CREDITS :

   NOAA